Time;durP1;ratioP1;P1;durP2;ratioP2;P2;SDS_P1;SDS_P2;PMS_P1;PMS_P2;Temp;Humidity;BMP_temperature;BMP_pressure;BME280_temperature;BME280_humidity;BME280_pressure;Samples;Min_cycle;Max_cycle;Signal;HPM_P1;HPM_P2
2022/04/08 00:00:58;;;;;;;1.40;1.27;;;12.40;93.60;;;12.49;62.55;93727.03;5054149;28;20858;-54
2022/04/08 00:03:26;;;;;;;2.33;1.40;;;12.40;93.50;;;12.48;62.21;93733.31;5060030;28;20462;-55
2022/04/08 00:05:54;;;;;;;3.13;1.47;;;12.40;93.50;;;12.47;62.41;93736.97;5059171;28;20886;-56
2022/04/08 00:08:22;;;;;;;2.40;1.40;;;12.40;93.50;;;12.45;62.48;93733.66;5059225;28;20470;-56
2022/04/08 00:10:49;;;;;;;4.63;1.23;;;12.30;93.40;;;12.43;62.12;93743.59;5056473;28;20476;-56
2022/04/08 00:13:17;;;;;;;3.00;1.27;;;12.30;93.40;;;12.38;62.18;93730.13;5057173;28;20509;-56
2022/04/08 00:15:44;;;;;;;1.50;1.40;;;12.30;93.40;;;12.38;62.09;93733.56;5059808;28;20490;-56
2022/04/08 00:18:12;;;;;;;1.80;1.23;;;12.30;93.30;;;12.36;62.40;93748.75;5058405;28;20827;-56
2022/04/08 00:20:40;;;;;;;6.73;1.47;;;12.20;93.30;;;12.35;62.06;93741.03;5060608;28;20523;-55
2022/04/08 00:23:08;;;;;;;2.23;1.70;;;12.20;93.20;;;12.33;62.11;93743.84;5056295;28;20844;-55
2022/04/08 00:25:36;;;;;;;2.40;1.87;;;12.20;93.20;;;12.33;62.26;93745.63;5059648;28;21029;-55
2022/04/08 00:28:03;;;;;;;2.10;1.47;;;12.20;93.20;;;12.32;62.28;93758.00;5057451;28;20459;-54
2022/04/08 00:30:31;;;;;;;4.20;1.57;;;12.20;93.30;;;12.30;62.45;93746.00;5057612;28;20480;-54
2022/04/08 00:32:58;;;;;;;2.60;1.10;;;12.20;93.30;;;12.30;61.76;93764.44;5056929;28;20456;-55
2022/04/08 00:35:26;;;;;;;3.83;2.07;;;12.20;93.10;;;12.31;62.06;93766.09;5053299;28;20471;-54
2022/04/08 00:37:53;;;;;;;2.10;1.90;;;12.20;93.10;;;12.32;61.99;93765.13;5060479;28;20517;-55
2022/04/08 00:40:22;;;;;;;4.30;1.80;;;12.20;93.10;;;12.32;62.07;93757.22;5057794;28;21096;-54
2022/04/08 00:42:49;;;;;;;4.77;1.73;;;12.20;93.10;;;12.31;61.74;93763.47;5055436;28;20880;-56
2022/04/08 00:45:16;;;;;;;1.97;1.40;;;12.20;92.90;;;12.29;61.34;93757.56;5056394;28;20566;-56
2022/04/08 00:47:44;;;;;;;3.83;1.50;;;12.20;92.70;;;12.27;61.46;93770.91;5053452;28;20852;-56
2022/04/08 00:50:12;;;;;;;6.90;2.00;;;12.20;92.70;;;12.22;61.38;93751.34;5058725;28;20482;-55
2022/04/08 00:52:41;;;;;;;2.37;1.80;;;12.20;92.80;;;12.23;61.41;93753.00;5057697;28;20485;-57
2022/04/08 00:55:10;;;;;;;10.43;2.10;;;12.10;92.80;;;12.20;61.48;93757.59;5056408;28;20490;-55
2022/04/08 00:57:38;;;;;;;2.90;1.40;;;12.10;92.80;;;12.18;61.18;93759.59;5051708;28;20978;-54
2022/04/08 01:00:08;;;;;;;2.03;1.30;;;12.10;92.50;;;12.14;60.67;93760.94;5057298;28;20499;-56
2022/04/08 01:02:35;;;;;;;10.33;2.33;;;12.10;92.30;;;12.11;61.14;93753.41;5058459;28;20490;-55
2022/04/08 01:05:03;;;;;;;2.70;1.43;;;12.00;92.10;;;12.10;60.79;93753.56;5062186;28;20510;-53
2022/04/08 01:07:31;;;;;;;3.27;1.27;;;12.00;92.10;;;12.07;60.77;93762.66;5048680;28;20491;-57
2022/04/08 01:09:58;;;;;;;1.60;1.50;;;12.00;92.00;;;12.04;60.51;93760.38;5056247;28;20478;-55
2022/04/08 01:12:26;;;;;;;3.60;1.73;;;12.00;91.90;;;12.04;60.81;93770.94;5058187;28;20459;-58
2022/04/08 01:14:58;;;;;;;1.63;1.53;;;11.90;91.90;;;12.01;60.71;93771.28;5060202;28;20479;-56
2022/04/08 01:17:26;;;;;;;3.33;1.87;;;11.90;91.80;;;12.00;60.69;93774.91;5058936;28;20455;-53
2022/04/08 01:19:53;;;;;;;3.63;1.67;;;11.90;91.80;;;11.98;60.49;93771.63;5051858;28;20930;-59
2022/04/08 01:22:20;;;;;;;1.60;1.50;;;11.90;91.80;;;11.94;60.53;93786.94;5051578;28;20469;-55
2022/04/08 01:24:48;;;;;;;1.97;1.50;;;11.90;91.70;;;11.93;60.65;93782.69;5058424;28;20567;-57
2022/04/08 01:27:18;;;;;;;3.67;1.13;;;11.90;91.80;;;11.92;60.64;93788.94;5057173;28;20990;-54
2022/04/08 01:29:47;;;;;;;5.47;1.70;;;11.80;91.70;;;11.90;60.52;93783.00;5056263;28;20925;-55
2022/04/08 01:32:15;;;;;;;5.03;1.77;;;11.80;91.50;;;11.90;60.05;93785.66;5049803;28;20546;-56
2022/04/08 01:34:45;;;;;;;3.43;1.37;;;11.80;91.30;;;11.88;59.92;93798.16;5057664;28;20502;-55
2022/04/08 01:37:13;;;;;;;2.17;1.97;;;11.80;91.20;;;11.89;60.04;93791.09;5057453;28;20456;-56
2022/04/08 01:39:41;;;;;;;8.00;1.80;;;11.80;91.10;;;11.89;59.84;93794.53;5056272;28;20979;-55
2022/04/08 01:42:09;;;;;;;2.70;1.77;;;11.80;91.00;;;11.89;59.51;93784.00;5055856;28;20471;-55
2022/04/08 01:44:38;;;;;;;7.43;1.30;;;11.80;91.00;;;11.87;59.50;93791.28;5055367;28;20470;-55
2022/04/08 01:47:06;;;;;;;4.27;1.67;;;11.80;90.90;;;11.86;59.57;93789.63;5058862;28;20459;-55
2022/04/08 01:49:33;;;;;;;2.50;1.73;;;11.80;90.90;;;11.87;59.37;93779.88;5055040;28;20501;-55
2022/04/08 01:52:00;;;;;;;3.07;1.30;;;11.80;90.80;;;11.86;59.38;93780.91;5054255;28;20462;-54
2022/04/08 01:54:28;;;;;;;1.33;1.23;;;11.80;90.70;;;11.86;59.33;93786.19;5055046;28;20479;-54
2022/04/08 01:56:55;;;;;;;1.60;1.37;;;11.80;90.60;;;11.87;59.19;93790.44;5054991;28;21008;-56
2022/04/08 01:59:22;;;;;;;1.53;1.40;;;11.80;90.60;;;11.88;59.04;93786.81;5058173;28;20450;-58
2022/04/08 02:01:51;;;;;;;1.80;1.50;;;11.80;90.40;;;11.87;58.87;93788.63;5055589;28;20524;-55
2022/04/08 02:04:18;;;;;;;1.40;1.30;;;11.80;90.40;;;11.89;59.10;93796.38;5053535;28;20475;-56
2022/04/08 02:06:45;;;;;;;1.67;1.57;;;11.80;90.40;;;11.89;59.03;93793.72;5054797;28;20509;-55
2022/04/08 02:09:13;;;;;;;1.50;1.20;;;11.80;90.50;;;11.87;59.16;93788.63;5056210;28;20456;-55
2022/04/08 02:11:40;;;;;;;1.93;1.80;;;11.80;90.30;;;11.86;58.89;93786.97;5057776;28;20466;-54
2022/04/08 02:14:08;;;;;;;2.47;1.73;;;11.80;90.30;;;11.87;58.79;93790.44;5056557;28;20538;-54
2022/04/08 02:16:36;;;;;;;2.97;1.33;;;11.80;90.20;;;11.87;58.86;93787.78;5049214;28;20838;-56
2022/04/08 02:19:04;;;;;;;2.13;1.93;;;11.80;90.20;;;11.86;58.96;93799.34;5054100;28;20463;-55
2022/04/08 02:21:32;;;;;;;3.43;2.27;;;11.80;90.20;;;11.85;58.93;93803.81;5058171;28;20499;-54
2022/04/08 02:23:59;;;;;;;2.33;1.93;;;11.70;90.30;;;11.83;59.20;93801.34;5055876;28;20471;-56
2022/04/08 02:26:28;;;;;;;2.30;2.10;;;11.70;90.30;;;11.81;59.08;93811.22;5052637;28;21027;-53
2022/04/08 02:28:55;;;;;;;2.53;2.23;;;11.70;90.50;;;11.76;59.33;93813.56;5052214;28;20947;-56
2022/04/08 02:31:22;;;;;;;2.33;1.33;;;11.70;90.50;;;11.73;59.48;93821.00;5052230;28;20480;-55
2022/04/08 02:33:49;;;;;;;1.50;1.40;;;11.70;90.50;;;11.68;59.43;93810.97;5057106;28;20451;-56
2022/04/08 02:36:18;;;;;;;1.30;1.20;;;11.60;90.60;;;11.63;59.32;93827.31;5055454;28;20480;-56
2022/04/08 02:38:45;;;;;;;1.60;1.47;;;11.60;90.50;;;11.61;59.31;93828.44;5051738;28;20834;-56
2022/04/08 02:41:13;;;;;;;1.80;1.70;;;11.50;90.50;;;11.60;59.35;93826.81;5058242;28;20495;-55
2022/04/08 02:43:40;;;;;;;3.00;1.57;;;11.50;90.50;;;11.56;59.53;93833.41;5058760;28;20810;-57
2022/04/08 02:46:07;;;;;;;5.13;1.73;;;11.50;90.60;;;11.51;59.79;93827.81;5059306;28;20482;-57
2022/04/08 02:48:35;;;;;;;2.70;1.27;;;11.40;90.70;;;11.44;59.78;93828.50;5054799;28;20478;-54
2022/04/08 02:51:02;;;;;;;1.97;1.80;;;11.40;90.80;;;11.40;59.69;93837.75;5052105;28;20486;-56
2022/04/08 02:53:31;;;;;;;4.70;1.90;;;11.30;90.70;;;11.39;59.87;93841.38;5051585;28;20563;-55
2022/04/08 02:55:59;;;;;;;1.70;1.60;;;11.30;90.80;;;11.33;59.77;93849.94;5053667;28;21101;-55
2022/04/08 02:58:27;;;;;;;1.80;1.47;;;11.30;90.90;;;11.25;60.22;93866.59;5058836;28;20458;-57
2022/04/08 03:00:57;;;;;;;3.33;2.30;;;11.20;91.00;;;11.19;60.26;93866.47;5052111;28;20495;-54
2022/04/08 03:03:26;;;;;;;2.47;2.20;;;11.20;91.10;;;11.10;60.50;93860.38;5056368;28;20465;-55
2022/04/08 03:05:53;;;;;;;2.13;2.03;;;11.10;91.20;;;11.00;60.00;93860.56;5057131;28;20491;-55
2022/04/08 03:08:20;;;;;;;2.60;2.10;;;11.00;91.10;;;10.91;60.81;93869.47;5055194;28;20577;-56
2022/04/08 03:10:49;;;;;;;3.43;1.60;;;10.90;91.50;;;10.81;61.28;93879.31;5054789;28;20482;-56
2022/04/08 03:13:16;;;;;;;3.13;2.10;;;10.80;91.80;;;10.69;61.49;93876.19;5052937;28;20463;-58
2022/04/08 03:15:44;;;;;;;2.20;2.00;;;10.70;92.20;;;10.58;61.52;93875.56;5054430;28;20473;-56
2022/04/08 03:18:11;;;;;;;4.20;2.50;;;10.60;92.10;;;10.48;62.25;93874.09;5056206;28;20535;-54
2022/04/08 03:20:38;;;;;;;1.87;1.77;;;10.50;92.30;;;10.38;61.94;93890.84;5054854;28;21162;-54
2022/04/08 03:23:06;;;;;;;2.93;2.33;;;10.40;92.20;;;10.28;61.91;93903.25;5053178;28;20972;-55
2022/04/08 03:25:34;;;;;;;2.53;1.60;;;10.30;92.40;;;10.18;62.11;93895.53;5053026;28;20494;-56
2022/04/08 03:28:02;;;;;;;2.60;1.50;;;10.20;92.50;;;10.11;62.58;93901.59;5054474;28;20619;-56
2022/04/08 03:30:31;;;;;;;1.73;1.63;;;10.10;92.80;;;10.02;62.55;93903.38;5055453;28;20478;-55
2022/04/08 03:32:59;;;;;;;2.00;1.53;;;10.00;92.70;;;9.96;62.98;93910.09;5058857;28;20507;-57
2022/04/08 03:35:26;;;;;;;3.97;2.60;;;10.00;93.00;;;9.93;63.09;93917.47;5052822;28;21007;-57
2022/04/08 03:37:53;;;;;;;4.90;1.50;;;9.90;94.00;;;9.89;62.64;93922.22;5053516;28;20608;-56
2022/04/08 03:40:21;;;;;;;3.10;2.10;;;9.80;93.40;;;9.85;62.70;93910.38;5060528;28;20557;-57
2022/04/08 03:42:48;;;;;;;2.63;2.43;;;9.80;93.60;;;9.83;62.74;93912.34;5058247;28;20471;-54
2022/04/08 03:45:16;;;;;;;3.03;2.10;;;9.80;93.60;;;9.81;62.77;93915.13;5058109;28;20478;-55
2022/04/08 03:47:44;;;;;;;2.13;2.00;;;9.80;93.60;;;9.80;63.45;93924.00;5061780;28;20469;-56
2022/04/08 03:50:11;;;;;;;3.33;2.50;;;9.80;94.00;;;9.78;62.74;93935.66;5058209;28;20474;-56
2022/04/08 03:52:38;;;;;;;2.37;2.20;;;9.80;93.70;;;9.74;63.58;93934.31;5058885;28;20454;-55
2022/04/08 03:55:08;;;;;;;3.17;1.63;;;9.70;94.30;;;9.72;62.86;93952.03;5059578;28;20475;-54
2022/04/08 03:57:35;;;;;;;1.97;1.67;;;9.70;93.60;;;9.68;62.79;93951.50;5057759;28;20447;-56
2022/04/08 04:00:03;;;;;;;1.90;1.80;;;9.70;93.70;;;9.64;62.68;93951.00;5057521;28;20475;-56
2022/04/08 04:02:32;;;;;;;4.93;1.93;;;9.70;93.70;;;9.63;62.83;93948.53;5062152;28;20536;-56
2022/04/08 04:05:00;;;;;;;13.73;2.30;;;9.60;93.70;;;9.63;63.69;93944.09;5059389;28;20482;-56
2022/04/08 04:07:28;;;;;;;4.67;2.50;;;9.60;94.40;;;9.67;63.02;93949.88;5059744;28;20509;-57
2022/04/08 04:09:55;;;;;;;1.73;1.60;;;9.70;94.00;;;9.68;63.32;93947.09;5061209;28;20575;-55
2022/04/08 04:12:22;;;;;;;2.73;1.70;;;9.70;93.90;;;9.69;63.10;93948.72;5055594;28;20938;-55
2022/04/08 04:14:50;;;;;;;2.53;2.13;;;9.70;93.90;;;9.71;62.73;93960.88;5059074;28;20660;-56
2022/04/08 04:17:18;;;;;;;5.30;2.47;;;9.70;93.90;;;9.71;62.93;93974.00;5057194;28;20459;-55
2022/04/08 04:19:47;;;;;;;10.37;2.17;;;9.70;93.90;;;9.74;63.60;93971.06;5059107;28;20574;-57
2022/04/08 04:22:14;;;;;;;2.40;2.23;;;9.70;94.40;;;9.81;63.34;93972.91;5051851;28;20917;-56
2022/04/08 04:24:41;;;;;;;2.07;1.97;;;9.80;94.10;;;9.87;62.71;93977.53;5060576;28;20471;-55
2022/04/08 04:27:09;;;;;;;3.43;1.87;;;9.80;93.80;;;9.92;62.63;93979.69;5056806;28;20459;-57
2022/04/08 04:29:37;;;;;;;4.73;2.30;;;9.90;93.60;;;9.98;62.36;93980.88;5060717;28;20482;-55
2022/04/08 04:32:06;;;;;;;2.50;1.90;;;9.90;93.60;;;10.03;62.38;93976.78;5052422;28;20876;-54
2022/04/08 04:34:36;;;;;;;1.83;1.73;;;10.00;93.00;;;10.13;62.10;93986.34;5050825;28;21015;-57
2022/04/08 04:37:05;;;;;;;1.83;1.60;;;10.10;92.80;;;10.22;61.50;93988.00;5060812;28;20554;-57
2022/04/08 04:39:33;;;;;;;5.20;2.00;;;10.20;92.40;;;10.33;61.37;93985.13;5058927;28;20526;-55
2022/04/08 04:42:00;;;;;;;4.67;2.30;;;10.30;92.30;;;10.45;61.14;93983.00;5053919;28;20498;-55
2022/04/08 04:44:28;;;;;;;3.40;2.10;;;10.40;92.00;;;10.61;60.92;93984.84;5052462;28;20493;-56
2022/04/08 04:46:55;;;;;;;5.37;2.30;;;10.50;92.00;;;10.77;60.71;93995.38;5054870;28;20556;-55
2022/04/08 04:49:23;;;;;;;5.20;1.70;;;10.70;91.90;;;10.94;60.61;94006.75;5059449;28;20549;-55
2022/04/08 04:51:50;;;;;;;1.73;1.63;;;10.80;91.80;;;11.11;60.16;94012.84;5058298;28;20452;-57
2022/04/08 04:54:19;;;;;;;4.27;1.90;;;11.00;91.50;;;11.24;59.92;94025.50;5058386;28;20618;-55
2022/04/08 04:56:47;;;;;;;3.77;2.10;;;11.10;91.40;;;11.31;59.84;94036.22;5053158;28;20562;-55
2022/04/08 04:59:14;;;;;;;3.57;2.10;;;11.20;91.60;;;11.34;59.96;94041.16;5055110;28;20455;-56
2022/04/08 05:01:41;;;;;;;2.03;1.50;;;11.30;91.30;;;11.37;59.63;94048.72;5054173;28;20483;-54
2022/04/08 05:04:09;;;;;;;3.10;2.00;;;11.30;91.10;;;11.35;59.66;94047.22;5059272;28;20540;-56
2022/04/08 05:06:36;;;;;;;3.40;2.20;;;11.30;90.90;;;11.33;59.69;94046.59;5052729;28;20452;-56
2022/04/08 05:09:05;;;;;;;5.53;2.60;;;11.30;91.10;;;11.34;59.90;94058.75;5056603;28;20452;-54
2022/04/08 05:11:34;;;;;;;2.70;2.27;;;11.30;91.10;;;11.32;59.99;94061.53;5058761;28;20479;-55
2022/04/08 05:14:01;;;;;;;7.33;3.50;;;11.30;91.10;;;11.33;59.99;94065.81;5059236;28;20451;-56
2022/04/08 05:16:29;;;;;;;7.13;4.50;;;11.20;91.00;;;11.34;59.91;94059.59;5054003;28;20498;-57
2022/04/08 05:18:56;;;;;;;8.20;4.50;;;11.30;91.20;;;11.37;60.45;94074.22;5051299;28;20459;-56
2022/04/08 05:21:23;;;;;;;5.90;3.80;;;11.30;91.30;;;11.37;60.55;94075.06;5055869;28;20608;-56
2022/04/08 05:23:51;;;;;;;7.20;3.50;;;11.30;91.50;;;11.43;59.95;94073.56;5059704;28;20460;-56
2022/04/08 05:26:18;;;;;;;9.60;3.30;;;11.30;91.30;;;11.44;60.21;94076.03;5055985;28;20479;-57
2022/04/08 05:28:47;;;;;;;3.00;2.70;;;11.30;91.30;;;11.50;60.09;94074.56;5059837;28;20458;-56
2022/04/08 05:31:14;;;;;;;5.90;2.70;;;11.40;91.40;;;11.57;60.16;94082.59;5049090;28;20475;-54
2022/04/08 05:33:42;;;;;;;3.73;2.50;;;11.50;91.60;;;11.68;60.02;94077.00;5054787;28;20496;-54
2022/04/08 05:36:09;;;;;;;2.40;1.93;;;11.50;91.50;;;11.83;59.75;94085.88;5057412;28;20613;-56
2022/04/08 05:38:37;;;;;;;2.40;2.30;;;11.70;91.40;;;12.01;59.82;94079.63;5053423;28;20998;-56
2022/04/08 05:41:04;;;;;;;6.93;2.20;;;11.80;91.30;;;12.25;59.62;94088.47;5051491;28;20491;-54
2022/04/08 05:43:31;;;;;;;4.03;2.00;;;12.00;91.40;;;12.55;58.86;94081.59;5050618;28;20974;-56
2022/04/08 05:46:00;;;;;;;1.70;1.60;;;12.30;90.90;;;12.81;57.92;94088.38;5057624;28;20472;-54
2022/04/08 05:48:27;;;;;;;4.97;1.17;;;12.50;90.30;;;12.98;57.51;94087.34;5055540;28;20481;-55
2022/04/08 05:50:54;;;;;;;5.23;1.70;;;12.70;89.70;;;13.19;57.64;94086.69;5055081;28;20475;-55
2022/04/08 05:53:26;;;;;;;1.83;1.50;;;12.90;89.70;;;13.42;57.16;94089.38;5058330;28;20458;-56
2022/04/08 05:55:53;;;;;;;5.67;1.47;;;13.20;89.30;;;13.66;56.60;94094.63;5054682;28;20473;-55
2022/04/08 05:58:21;;;;;;;2.93;1.80;;;13.40;88.90;;;13.87;56.39;94092.13;5056913;28;20451;-55
2022/04/08 06:00:48;;;;;;;2.37;1.70;;;13.60;87.90;;;14.11;56.23;94096.38;5054540;28;20482;-55
2022/04/08 06:03:16;;;;;;;3.23;1.80;;;13.80;87.50;;;14.37;55.53;94096.94;5057929;28;20468;-56
2022/04/08 06:05:44;;;;;;;10.00;2.50;;;14.00;86.10;;;14.61;55.24;94095.84;5051185;28;20521;-57
2022/04/08 06:08:11;;;;;;;6.87;1.90;;;14.30;86.40;;;14.85;54.66;94090.25;5052385;28;20824;-57
2022/04/08 06:10:38;;;;;;;9.00;2.17;;;14.50;85.50;;;15.08;54.94;94093.78;5058472;28;20843;-57
2022/04/08 06:13:06;;;;;;;1.83;1.30;;;14.70;85.50;;;15.30;54.63;94084.84;5056579;28;20452;-57
2022/04/08 06:15:34;;;;;;;5.17;1.70;;;15.00;85.20;;;15.51;53.72;94088.53;5061649;28;20864;-56
2022/04/08 06:18:02;;;;;;;3.00;1.37;;;15.20;83.00;;;15.72;49.57;94085.88;5053637;28;20516;-56
2022/04/08 06:20:31;;;;;;;5.30;1.70;;;15.40;75.20;;;15.97;50.85;94090.78;5060082;28;21057;-57
2022/04/08 06:22:58;;;;;;;2.30;1.40;;;15.60;76.80;;;16.21;49.48;94099.34;5055085;28;21039;-56
2022/04/08 06:25:26;;;;;;;1.47;1.37;;;15.80;73.80;;;16.39;47.32;94110.28;5053128;28;20480;-57
2022/04/08 06:27:57;;;;;;;1.57;1.47;;;16.00;70.00;;;16.56;47.64;94105.47;5050637;28;20818;-56
2022/04/08 06:30:24;;;;;;;9.23;1.93;;;16.20;69.30;;;16.80;47.53;94096.19;5056966;28;20952;-55
2022/04/08 06:32:52;;;;;;;2.00;1.60;;;16.40;69.50;;;17.09;47.64;94091.66;5057295;28;20459;-56
2022/04/08 06:35:19;;;;;;;2.20;1.40;;;16.70;69.00;;;17.36;47.29;94089.06;5054068;28;20467;-57
2022/04/08 06:37:48;;;;;;;6.20;1.90;;;16.90;68.40;;;17.64;45.99;94104.84;5048913;28;20452;-57
2022/04/08 06:40:15;;;;;;;1.67;1.17;;;17.20;66.20;;;17.91;45.52;94105.75;5055205;28;20475;-56
2022/04/08 06:42:43;;;;;;;2.37;1.63;;;17.40;64.00;;;18.16;44.93;94099.00;5056081;28;20548;-56
2022/04/08 06:45:10;;;;;;;2.70;1.30;;;17.70;63.60;;;18.41;45.10;94102.66;5056376;28;20479;-58
2022/04/08 06:47:46;;;;;;;2.30;1.33;;;18.00;62.90;;;18.68;43.34;94112.44;5056028;28;20443;-56
2022/04/08 06:50:14;;;;;;;2.00;1.30;;;18.20;59.90;;;18.91;42.96;94110.13;5048102;28;20490;-55
2022/04/08 06:52:41;;;;;;;1.63;1.40;;;18.50;59.30;;;19.15;42.72;94113.94;5058878;28;20448;-56
2022/04/08 06:55:11;;;;;;;7.90;1.47;;;18.70;58.70;;;19.40;41.89;94109.75;5057756;28;20493;-56
2022/04/08 06:57:38;;;;;;;1.50;1.40;;;18.90;57.00;;;19.62;41.55;94107.56;5055223;28;20456;-56
2022/04/08 07:00:07;;;;;;;1.40;1.20;;;19.20;56.70;;;19.86;41.73;94100.66;5053181;28;20472;-58
2022/04/08 07:02:35;;;;;;;1.77;1.67;;;19.40;55.90;;;20.09;39.98;94112.59;5057474;28;20483;-58
2022/04/08 07:05:02;;;;;;;3.33;1.20;;;19.60;54.20;;;20.24;40.05;94105.91;5057661;28;20505;-54
2022/04/08 07:07:32;;;;;;;3.53;1.60;;;19.80;53.80;;;20.39;39.45;94107.44;5058794;28;20455;-57
2022/04/08 07:10:02;;;;;;;3.40;1.70;;;19.90;52.30;;;20.53;38.83;94106.28;5054013;28;20474;-56
2022/04/08 07:12:31;;;;;;;2.90;1.80;;;20.10;51.60;;;20.62;39.46;94133.53;5049968;28;20526;-58
2022/04/08 07:14:58;;;;;;;14.30;2.47;;;20.20;52.30;;;20.81;39.47;94120.22;5059796;28;20494;-57
2022/04/08 07:17:29;;;;;;;5.57;3.13;;;20.30;52.20;;;21.05;39.56;94130.03;5062627;28;20447;-56
2022/04/08 07:19:57;;;;;;;4.37;2.40;;;20.60;53.50;;;21.25;39.53;94129.78;5062620;28;21013;-56
2022/04/08 07:22:24;;;;;;;2.03;1.83;;;20.80;52.90;;;21.49;38.68;94136.09;5053507;28;20491;-56
2022/04/08 07:24:51;;;;;;;2.57;1.43;;;21.00;51.90;;;21.73;38.55;94132.72;5058707;28;20851;-55
2022/04/08 07:27:19;;;;;;;1.47;1.37;;;21.20;51.10;;;22.02;37.74;94139.91;5058653;28;20538;-56
2022/04/08 07:29:48;;;;;;;1.50;1.40;;;21.50;50.40;;;22.34;36.97;94144.22;5062528;28;20509;-57
2022/04/08 07:32:20;;;;;;;2.10;1.30;;;21.80;49.80;;;22.58;36.56;94147.72;5061401;28;20558;-56
2022/04/08 07:34:49;;;;;;;7.13;1.70;;;22.00;48.80;;;22.88;36.08;94149.44;5054622;28;20471;-57
2022/04/08 07:37:16;;;;;;;1.83;1.20;;;22.30;48.10;;;23.17;33.88;94146.91;5053685;28;20518;-55
2022/04/08 07:39:44;;;;;;;1.60;1.50;;;22.60;45.40;;;23.45;35.39;94149.66;5061603;28;20579;-55
2022/04/08 07:42:12;;;;;;;2.13;1.23;;;22.90;47.00;;;23.67;34.39;94138.25;5058455;28;20483;-55
2022/04/08 07:44:39;;;;;;;1.47;1.37;;;23.10;46.10;;;23.88;34.57;94152.09;5058544;28;20515;-55
2022/04/08 07:47:10;;;;;;;5.20;1.60;;;23.40;46.20;;;24.20;33.38;94170.38;5059825;28;20450;-55
2022/04/08 07:49:38;;;;;;;1.57;1.10;;;23.60;44.80;;;24.57;33.42;94177.97;5059274;28;20571;-56
2022/04/08 07:52:06;;;;;;;1.70;1.60;;;23.90;45.00;;;25.02;33.47;94172.53;5061170;28;20566;-56
2022/04/08 07:54:33;;;;;;;4.17;1.63;;;24.40;44.70;;;25.45;33.36;94169.34;5060912;28;20466;-57
2022/04/08 07:57:00;;;;;;;2.47;1.57;;;24.90;44.60;;;25.94;32.16;94174.78;5055924;28;20985;-56
2022/04/08 07:59:28;;;;;;;3.10;1.33;;;25.40;42.40;;;26.33;31.47;94185.44;5060364;28;20452;-58
2022/04/08 08:01:55;;;;;;;2.80;1.47;;;25.90;41.80;;;26.58;30.84;94176.75;5056925;28;20497;-58
2022/04/08 08:04:24;;;;;;;1.13;1.03;;;26.40;40.90;;;26.88;31.00;94180.00;5060514;28;20466;-57
2022/04/08 08:06:51;;;;;;;1.67;1.30;;;26.70;40.90;;;27.08;29.62;94180.16;5061645;28;20440;-57
2022/04/08 08:09:18;;;;;;;1.30;0.90;;;27.00;39.90;;;27.30;30.25;94176.50;5054178;28;20458;-57
2022/04/08 08:11:46;;;;;;;4.03;1.33;;;27.20;39.70;;;27.54;29.63;94171.50;5057725;28;20469;-57
2022/04/08 08:14:13;;;;;;;2.23;1.63;;;27.40;38.80;;;27.54;30.26;94176.91;5058985;28;20454;-57
2022/04/08 08:16:40;;;;;;;1.93;1.50;;;27.40;39.10;;;27.68;30.36;94174.53;5057935;28;20453;-56
2022/04/08 08:19:07;;;;;;;3.53;1.43;;;27.60;39.30;;;27.92;29.94;94166.81;5053325;28;20466;-55
2022/04/08 08:21:36;;;;;;;2.73;1.20;;;27.80;39.10;;;28.22;29.83;94171.47;5063326;28;20498;-55
2022/04/08 08:24:04;;;;;;;2.27;1.50;;;28.10;38.60;;;28.48;27.84;94181.53;5058606;28;20815;-57
2022/04/08 08:26:32;;;;;;;3.13;1.53;;;28.50;36.70;;;28.51;28.14;94179.09;5057291;28;20498;-57
2022/04/08 08:29:00;;;;;;;2.03;1.43;;;28.70;36.20;;;28.58;28.28;94184.25;5060344;28;20469;-58
2022/04/08 08:31:27;;;;;;;1.30;1.20;;;28.80;36.60;;;28.59;28.37;94196.72;5059819;28;20471;-55
2022/04/08 08:33:54;;;;;;;3.10;1.20;;;28.90;35.80;;;28.58;27.50;94190.50;5056843;28;20727;-56
2022/04/08 08:36:22;;;;;;;3.00;1.03;;;28.90;34.90;;;28.61;27.68;94192.69;5056074;28;20489;-56
2022/04/08 08:38:51;;;;;;;1.40;1.30;;;29.00;35.10;;;28.69;28.07;94198.63;5057090;28;20538;-57
2022/04/08 08:41:20;;;;;;;1.20;1.03;;;29.10;35.30;;;28.75;28.26;94190.25;5059489;28;20467;-57
2022/04/08 08:43:47;;;;;;;1.30;1.20;;;29.00;35.90;;;28.93;26.93;94194.28;5054884;28;20489;-55
2022/04/08 08:46:15;;;;;;;7.23;1.50;;;29.10;34.90;;;29.12;26.54;94207.28;5051837;28;20475;-56
2022/04/08 08:48:44;;;;;;;7.53;1.40;;;29.20;34.90;;;29.20;27.03;94214.06;5061233;28;20538;-55
2022/04/08 08:51:12;;;;;;;3.47;1.43;;;29.20;34.50;;;29.14;27.51;94205.94;5059366;28;20492;-57
2022/04/08 08:53:41;;;;;;;4.50;1.07;;;29.10;34.90;;;29.17;26.88;94212.69;5054125;28;20448;-56
2022/04/08 08:56:10;;;;;;;4.43;2.47;;;29.00;34.30;;;29.25;27.60;94209.47;5053806;28;20472;-57
2022/04/08 08:58:37;;;;;;;2.50;1.13;;;29.00;35.30;;;29.32;26.64;94199.13;5054789;28;20808;-56
2022/04/08 09:01:05;;;;;;;4.10;1.40;;;29.00;33.90;;;29.38;26.98;94212.69;5058723;28;20493;-57
2022/04/08 09:03:33;;;;;;;1.67;1.00;;;29.00;34.50;;;29.48;26.29;94204.53;5057903;28;20520;-55
2022/04/08 09:06:08;;;;;;;1.53;1.43;;;29.10;34.40;;;29.27;26.60;94203.78;5050654;28;20490;-56
2022/04/08 09:08:35;;;;;;;1.30;1.20;;;28.90;33.90;;;29.11;26.09;94192.94;5051500;28;20451;-56
2022/04/08 09:11:03;;;;;;;2.30;1.40;;;28.70;34.00;;;29.06;26.97;94195.63;5055870;28;20527;-55
2022/04/08 09:13:35;;;;;;;6.53;1.87;;;28.60;34.90;;;29.11;26.82;94194.81;5059451;28;20446;-56
2022/04/08 09:16:02;;;;;;;2.13;1.10;;;28.60;34.80;;;28.98;27.57;94188.88;5053168;28;20590;-56
2022/04/08 09:18:32;;;;;;;2.10;1.90;;;28.50;34.90;;;28.74;26.48;94182.41;5051295;28;20471;-57
2022/04/08 09:20:59;;;;;;;2.13;1.63;;;28.40;34.00;;;28.43;27.87;94185.84;5058537;28;20467;-56
2022/04/08 09:23:28;;;;;;;1.23;1.13;;;28.10;34.90;;;28.13;27.77;94181.19;5056207;28;20490;-56
2022/04/08 09:26:00;;;;;;;1.67;1.57;;;27.80;35.10;;;27.85;28.50;94185.94;5058619;28;20994;-55
2022/04/08 09:28:35;;;;;;;1.87;1.23;;;27.50;35.80;;;27.70;28.67;94192.13;5052127;28;20443;-55
2022/04/08 09:31:03;;;;;;;1.67;1.20;;;27.30;36.80;;;27.68;28.50;94183.44;5053426;28;20543;-56
2022/04/08 09:33:31;;;;;;;1.57;1.03;;;27.20;36.50;;;27.54;28.39;94182.31;5057213;28;20485;-56
2022/04/08 09:35:59;;;;;;;2.70;1.53;;;27.10;36.50;;;27.29;28.83;94182.97;5057712;28;20496;-54
2022/04/08 09:38:27;;;;;;;1.83;1.30;;;26.90;36.60;;;27.06;28.80;94179.59;5055958;28;20448;-56
2022/04/08 09:41:01;;;;;;;5.00;1.50;;;26.70;37.10;;;26.82;29.36;94181.84;5058992;28;20987;-58
2022/04/08 09:43:32;;;;;;;5.30;1.33;;;26.40;37.20;;;26.73;29.38;94173.41;5055587;28;20569;-55
2022/04/08 09:46:15;;;;;;;3.33;1.40;;;26.30;37.60;;;26.75;29.38;94165.88;5055557;28;20502;-55
2022/04/08 09:48:42;;;;;;;3.20;1.40;;;26.30;38.10;;;26.71;29.24;94172.88;5054663;28;20887;-57
2022/04/08 09:51:10;;;;;;;5.17;1.63;;;26.20;37.70;;;26.69;29.55;94168.78;5064378;28;20486;-56
2022/04/08 09:53:38;;;;;;;3.77;1.33;;;26.20;37.90;;;26.83;29.85;94164.56;5054486;28;20530;-55
2022/04/08 09:56:07;;;;;;;1.73;1.43;;;26.30;38.40;;;27.02;29.67;94165.81;5058351;28;20653;-57
2022/04/08 09:58:34;;;;;;;1.53;1.43;;;26.50;37.90;;;27.23;29.55;94170.50;5059320;28;20450;-57
2022/04/08 10:01:01;;;;;;;1.43;1.33;;;26.70;38.10;;;27.32;29.22;94171.69;5060313;28;20466;-57
2022/04/08 10:03:30;;;;;;;1.70;1.60;;;26.70;37.40;;;27.44;29.32;94166.88;5056183;28;20490;-55
2022/04/08 10:05:58;;;;;;;5.43;1.60;;;26.90;37.80;;;27.48;29.11;94168.00;5057208;28;20474;-57
2022/04/08 10:08:25;;;;;;;1.03;0.93;;;27.00;37.70;;;27.48;28.25;94156.34;5060842;28;20453;-58
2022/04/08 10:10:59;;;;;;;2.93;1.47;;;27.00;36.60;;;27.50;27.96;94151.53;5058709;28;20515;-58
2022/04/08 10:13:45;;;;;;;4.40;1.13;;;27.00;36.00;;;27.53;28.02;94135.59;5057331;28;20528;-57
2022/04/08 10:16:15;;;;;;;1.53;1.20;;;27.00;36.00;;;27.61;28.30;94155.06;5048846;28;20812;-57
2022/04/08 10:18:45;;;;;;;1.83;1.20;;;27.10;36.30;;;27.70;28.06;94146.19;5059858;28;20446;-57
2022/04/08 10:21:13;;;;;;;2.43;1.10;;;27.10;36.40;;;27.91;28.08;94141.63;5056417;28;20550;-56
2022/04/08 10:23:46;;;;;;;1.33;1.10;;;27.30;35.70;;;27.99;26.70;94147.66;5053448;28;20483;-56